Time;durP1;ratioP1;P1;durP2;ratioP2;P2;SDS_P1;SDS_P2;PMS_P1;PMS_P2;Temp;Humidity;BMP_temperature;BMP_pressure;BME280_temperature;BME280_humidity;BME280_pressure;Samples;Min_cycle;Max_cycle;Signal;HPM_P1;HPM_P2
2022/01/21 00:01:15;;;;;;;7.97;6.20;;;;;;;-0.01;79.14;98785.94;4973029;28;20646;-66
2022/01/21 00:03:41;;;;;;;6.70;5.07;;;;;;;0.12;78.93;98803.94;4973412;28;20282;-65
2022/01/21 00:06:07;;;;;;;6.97;5.37;;;;;;;0.06;78.35;98801.91;4972993;28;20281;-67
2022/01/21 00:08:38;;;;;;;6.73;5.00;;;;;;;0.06;79.93;98817.63;4971195;28;20544;-64
2022/01/21 00:11:04;;;;;;;6.63;5.30;;;;;;;0.05;79.87;98815.97;4976763;28;20815;-63
2022/01/21 00:13:36;;;;;;;6.23;4.80;;;;;;;0.09;79.62;98801.63;4976842;28;20377;-66
2022/01/21 00:16:05;;;;;;;8.27;4.97;;;;;;;0.16;78.40;98813.16;4975492;28;20308;-65
2022/01/21 00:18:32;;;;;;;5.65;4.70;;;;;;;0.08;78.57;98814.84;4976586;28;20783;-67
2022/01/21 00:31:54;;;;;;;7.43;5.43;;;;;;;0.22;78.95;98817.81;4976087;28;20749;-65
2022/01/21 00:34:20;;;;;;;8.20;5.83;;;;;;;0.16;77.89;98817.56;4976245;28;20277;-66
2022/01/21 00:36:45;;;;;;;6.90;5.07;;;;;;;0.10;78.31;98812.91;4977152;28;20490;-65
2022/01/21 00:39:12;;;;;;;8.53;5.60;;;;;;;-0.13;79.36;98783.66;4976980;28;20118;-67
2022/01/21 00:41:44;;;;;;;7.30;5.50;;;;;;;0.05;78.34;98815.97;4976510;28;20045;-66
2022/01/21 00:44:09;;;;;;;7.17;5.27;;;;;;;0.07;78.02;98823.66;4975801;28;20761;-64
2022/01/21 00:46:35;;;;;;;9.07;5.87;;;;;;;-0.03;78.14;98828.91;4976061;28;20297;-65
2022/01/21 00:49:01;;;;;;;8.07;4.97;;;;;;;-0.23;78.68;98806.41;4975969;28;20074;-67
2022/01/21 00:51:28;;;;;;;7.77;5.27;;;;;;;-0.14;79.15;98831.72;4975966;28;20042;-66
2022/01/21 00:53:53;;;;;;;10.77;7.30;;;;;;;-0.06;79.34;98829.19;4976717;28;20357;-63
2022/01/21 00:56:19;;;;;;;8.50;4.80;;;;;;;-0.09;79.19;98821.63;4976308;28;20394;-63
2022/01/21 00:58:44;;;;;;;6.70;5.30;;;;;;;-0.07;78.73;98828.38;4976858;28;20038;-63
2022/01/21 01:01:10;;;;;;;6.13;4.13;;;;;;;0.02;78.82;98828.50;4975836;28;20042;-66
2022/01/21 01:03:35;;;;;;;7.10;5.13;;;;;;;0.02;78.47;98831.97;4975789;28;20042;-65
2022/01/21 01:06:01;;;;;;;6.47;4.70;;;;;;;0.10;78.42;98839.91;4975667;28;20035;-65
2022/01/21 01:08:27;;;;;;;7.43;5.40;;;;;;;0.15;79.04;98834.25;4975468;28;20150;-64
2022/01/21 01:21:33;;;;;;;6.17;4.27;;;;;;;0.13;77.57;98842.25;4975207;28;20281;-65
2022/01/21 01:29:10;;;;;;;4.43;3.40;;;;;;;0.11;77.32;98856.44;4975056;28;20042;-65
2022/01/21 01:31:36;;;;;;;4.53;3.80;;;;;;;0.09;76.68;98853.13;4974970;28;20269;-63
2022/01/21 01:34:03;;;;;;;5.57;4.23;;;;;;;0.09;77.90;98851.34;4975039;28;20498;-62
2022/01/21 01:36:29;;;;;;;5.87;3.47;;;;;;;0.13;77.83;98857.94;4974980;28;20039;-62
2022/01/21 01:41:36;;;;;;;6.93;4.27;;;;;;;-0.37;76.16;98784.94;4975016;28;20082;-65
2022/01/21 01:49:36;;;;;;;12.03;6.17;;;;;;;0.17;77.46;98869.78;4974876;28;20258;-63
2022/01/21 01:52:04;;;;;;;9.13;5.47;;;;;;;0.21;77.29;98868.50;4975251;28;20274;-65
2022/01/21 01:54:32;;;;;;;7.50;4.57;;;;;;;0.18;77.61;98863.56;4974717;28;20278;-64
2022/01/21 01:56:58;;;;;;;6.53;5.17;;;;;;;0.22;77.89;98872.78;4974442;28;20043;-63
2022/01/21 01:59:24;;;;;;;10.40;6.03;;;;;;;0.22;78.19;98878.00;4974738;28;20357;-66
2022/01/21 02:02:18;;;;;;;8.50;5.00;;;;;;;0.25;78.67;98882.13;4975031;28;20273;-66
2022/01/21 02:04:46;;;;;;;8.90;4.90;;;;;;;0.27;78.70;98888.06;4973327;28;20486;-65
2022/01/21 02:07:14;;;;;;;6.93;5.27;;;;;;;0.14;79.06;98884.94;4974585;28;20102;-64
2022/01/21 02:09:40;;;;;;;11.57;6.53;;;;;;;0.13;79.01;98896.38;4974899;28;20290;-64
2022/01/21 02:12:06;;;;;;;11.33;6.73;;;;;;;0.03;79.74;98885.94;4974255;28;20498;-63
2022/01/21 02:14:37;;;;;;;7.97;6.00;;;;;;;0.02;80.09;98891.31;4974469;28;20034;-64
2022/01/21 02:22:43;;;;;;;6.90;4.20;;;;;;;0.17;80.70;98898.56;4974681;28;20310;-62
2022/01/21 02:25:17;;;;;;;7.57;5.50;;;;;;;0.22;80.13;98891.09;4974374;28;20309;-66
2022/01/21 02:27:55;;;;;;;8.03;5.63;;;;;;;0.24;80.02;98893.59;4972937;28;20270;-64
2022/01/21 02:30:23;;;;;;;8.05;5.25;;;;;;;0.23;80.08;98877.06;4974109;28;20270;-65
2022/01/21 02:32:52;;;;;;;7.33;5.30;;;;;;;0.17;79.45;98867.16;4973658;28;20077;-63
2022/01/21 02:35:18;;;;;;;7.07;5.30;;;;;;;0.20;80.23;98872.09;4974418;28;20293;-64
2022/01/21 02:37:45;;;;;;;8.93;5.73;;;;;;;0.28;80.94;98884.47;4973843;28;20051;-62
2022/01/21 02:40:11;;;;;;;8.50;5.87;;;;;;;0.36;80.83;98891.63;4973693;28;20607;-63
2022/01/21 02:42:38;;;;;;;10.00;6.97;;;;;;;0.24;80.34;98863.00;4973726;28;20349;-64
2022/01/21 02:45:05;;;;;;;8.43;6.07;;;;;;;0.40;80.56;98890.38;4973622;28;20642;-63
2022/01/21 02:47:30;;;;;;;8.40;5.60;;;;;;;0.45;80.38;98886.34;4973934;28;20270;-63
2022/01/21 02:49:56;;;;;;;8.83;5.80;;;;;;;0.45;79.51;98885.53;4973726;28;20313;-63
2022/01/21 02:52:25;;;;;;;10.27;6.90;;;;;;;0.35;78.83;98884.75;4973920;28;20131;-66
2022/01/21 02:54:50;;;;;;;8.27;6.50;;;;;;;0.19;79.63;98890.56;4974184;28;20391;-64
2022/01/21 02:57:16;;;;;;;9.33;7.30;;;;;;;0.07;79.40;98876.84;4973681;28;20286;-65
2022/01/21 02:59:41;;;;;;;9.97;5.43;;;;;;;0.15;79.71;98897.88;4973554;28;20035;-64
2022/01/21 03:02:07;;;;;;;7.77;5.80;;;;;;;0.11;79.85;98888.66;4973594;28;20050;-66
2022/01/21 03:07:00;;;;;;;7.77;5.70;;;;;;;0.12;79.33;98892.94;4973337;28;20522;-64
2022/01/21 03:09:27;;;;;;;10.90;5.90;;;;;;;0.15;79.05;98890.03;4973323;28;20054;-64
2022/01/21 03:11:53;;;;;;;8.90;5.50;;;;;;;0.17;78.58;98898.56;4973332;28;20620;-65
2022/01/21 03:14:18;;;;;;;7.20;6.23;;;;;;;0.15;79.01;98910.16;4973420;28;20069;-65
2022/01/21 03:16:44;;;;;;;8.70;6.50;;;;;;;0.17;78.84;98913.44;4974208;28;20038;-63
2022/01/21 03:19:10;;;;;;;9.90;5.57;;;;;;;0.13;78.62;98918.16;4979875;28;20038;-65
2022/01/21 03:21:36;;;;;;;6.10;5.43;;;;;;;-0.05;79.17;98909.34;4974416;28;20034;-64
2022/01/21 03:24:02;;;;;;;7.53;5.63;;;;;;;0.00;79.50;98928.09;4973505;28;20038;-65
2022/01/21 03:26:28;;;;;;;10.33;5.43;;;;;;;0.06;79.50;98931.94;4973400;28;20634;-63
2022/01/21 03:28:57;;;;;;;7.27;6.07;;;;;;;0.10;79.32;98933.31;4977439;28;20042;-62
2022/01/21 03:31:23;;;;;;;24.00;7.17;;;;;;;0.03;78.65;98924.38;4978618;28;20034;-64
2022/01/21 03:33:48;;;;;;;9.70;5.97;;;;;;;-0.01;78.36;98936.88;4974658;28;20270;-64
2022/01/21 03:36:15;;;;;;;6.63;5.10;;;;;;;-0.15;78.99;98925.06;4973288;28;20039;-64
2022/01/21 03:38:40;;;;;;;7.17;5.87;;;;;;;-0.18;78.59;98938.44;4973241;28;20072;-63
2022/01/21 03:41:06;;;;;;;10.83;6.87;;;;;;;-0.13;78.94;98948.47;4973234;28;20750;-64
2022/01/21 03:43:33;;;;;;;10.03;5.73;;;;;;;-0.21;79.64;98948.34;4973636;28;20035;-65
2022/01/21 03:45:59;;;;;;;9.43;5.87;;;;;;;-0.16;79.56;98949.59;4977055;28;20353;-61
2022/01/21 03:48:26;;;;;;;9.13;5.90;;;;;;;-0.21;79.18;98954.41;4977005;28;20795;-63
2022/01/21 03:50:52;;;;;;;11.07;5.33;;;;;;;-0.22;79.57;98965.84;4977169;28;20288;-65
2022/01/21 03:53:18;;;;;;;8.77;6.03;;;;;;;-0.20;79.58;98968.31;4977004;28;20361;-64
2022/01/21 03:55:44;;;;;;;27.77;6.03;;;;;;;-0.22;79.74;98954.56;4976726;28;20702;-64
2022/01/21 03:58:11;;;;;;;9.90;5.20;;;;;;;-0.15;79.22;98971.34;4976842;28;20074;-65
2022/01/21 04:00:42;;;;;;;9.07;5.47;;;;;;;-0.18;79.19;98966.41;4976723;28;20406;-63
2022/01/21 04:03:09;;;;;;;6.27;5.20;;;;;;;-0.15;78.64;98980.03;4976770;28;20316;-63
2022/01/21 04:05:35;;;;;;;8.80;5.13;;;;;;;-0.23;77.74;98966.81;4976780;28;20365;-65
2022/01/21 04:08:03;;;;;;;6.30;4.80;;;;;;;-0.21;78.63;98961.44;4976973;28;20642;-66
2022/01/21 04:10:29;;;;;;;4.90;4.25;;;;;;;-0.15;77.74;98976.59;4976736;28;20278;-62
2022/01/21 04:12:54;;;;;;;8.17;5.73;;;;;;;-0.13;77.96;98985.94;4976877;28;20437;-64
2022/01/21 04:15:20;;;;;;;10.47;6.47;;;;;;;-0.10;78.39;98988.28;4976796;28;20635;-65
2022/01/21 04:17:45;;;;;;;11.23;6.23;;;;;;;-0.16;78.16;98991.44;4976466;28;20065;-66
2022/01/21 04:20:12;;;;;;;7.77;5.40;;;;;;;-0.22;78.75;98984.16;4976412;28;20580;-63
2022/01/21 04:22:38;;;;;;;10.07;5.10;;;;;;;-0.08;78.69;98988.13;4977419;28;20038;-64
2022/01/21 04:25:05;;;;;;;7.33;5.17;;;;;;;-0.09;78.28;98982.09;4977859;28;20262;-64
2022/01/21 04:27:31;;;;;;;13.10;7.13;;;;;;;-0.08;78.46;98982.91;4976868;28;20039;-66
2022/01/21 04:29:56;;;;;;;9.53;5.73;;;;;;;0.02;78.45;98993.38;4976481;28;20300;-64
2022/01/21 04:32:22;;;;;;;10.20;7.03;;;;;;;-0.03;77.42;98991.97;4981527;28;20037;-66
2022/01/21 04:34:48;;;;;;;10.77;6.83;;;;;;;-0.01;78.23;99000.53;4983761;28;20026;-64
2022/01/21 04:37:15;;;;;;;9.37;6.73;;;;;;;-0.08;77.86;98993.38;4983657;28;20543;-66
2022/01/21 04:39:48;;;;;;;8.77;6.70;;;;;;;-0.13;77.90;99014.72;4986519;28;20127;-63
2022/01/21 04:47:39;;;;;;;8.80;6.07;;;;;;;-0.29;78.99;99026.69;4992396;28;20273;-64
2022/01/21 04:50:10;;;;;;;9.93;7.03;;;;;;;-0.31;79.42;99022.41;4995149;28;20266;-69
2022/01/21 04:52:36;;;;;;;9.03;6.43;;;;;;;-0.24;79.20;99029.75;4995890;28;20042;-65
2022/01/21 04:55:01;;;;;;;10.57;6.73;;;;;;;-0.21;78.90;99029.47;4995076;28;20266;-63
2022/01/21 04:57:29;;;;;;;9.17;6.30;;;;;;;-0.13;80.27;99026.97;4995267;28;20081;-65
2022/01/21 04:59:54;;;;;;;9.80;7.07;;;;;;;-0.20;78.76;99005.78;4995160;28;20505;-66
2022/01/21 05:02:20;;;;;;;9.23;7.23;;;;;;;-0.03;79.07;99033.03;4994816;28;20287;-67
2022/01/21 05:04:45;;;;;;;9.47;7.00;;;;;;;0.03;78.62;99042.16;4994853;28;20089;-67
2022/01/21 05:07:15;;;;;;;7.80;6.57;;;;;;;0.06;78.48;99045.31;4994770;28;20189;-67
2022/01/21 05:09:41;;;;;;;12.33;6.77;;;;;;;-0.10;78.99;99016.22;4995363;28;20043;-63
2022/01/21 05:12:09;;;;;;;13.00;8.30;;;;;;;0.13;78.60;99049.03;4995226;28;20320;-67
2022/01/21 05:17:11;;;;;;;10.73;7.03;;;;;;;0.02;77.94;99049.19;4994694;28;20038;-67
2022/01/21 05:19:37;;;;;;;8.83;7.40;;;;;;;-0.11;79.33;99045.97;4995302;28;20273;-68
2022/01/21 05:22:03;;;;;;;11.17;5.87;;;;;;;-0.11;78.51;99046.81;4995054;28;20261;-67
2022/01/21 05:24:29;;;;;;;13.10;7.30;;;;;;;-0.02;78.83;99055.63;4994882;28;20487;-68
2022/01/21 05:26:57;;;;;;;10.97;7.30;;;;;;;-0.17;79.00;99028.22;4994884;28;20276;-66
2022/01/21 05:29:26;;;;;;;10.35;7.25;;;;;;;0.05;77.92;99059.38;4994627;28;20110;-67
2022/01/21 05:31:51;;;;;;;;;;;;;;;0.12;78.29;99063.09;4996071;28;20078;-66
2022/01/21 05:34:17;;;;;;;8.70;6.87;;;;;;;0.05;78.53;99069.84;4994947;28;19998;-65
2022/01/21 05:36:44;;;;;;;12.70;6.93;;;;;;;0.12;77.58;99068.31;4996199;28;20034;-68
2022/01/21 05:39:11;;;;;;;10.20;7.20;;;;;;;0.11;78.43;99066.66;5001086;28;20265;-67
2022/01/21 05:41:37;;;;;;;15.93;9.07;;;;;;;0.09;77.00;99073.81;4996485;28;20280;-68
2022/01/21 05:44:09;;;;;;;9.97;6.67;;;;;;;0.00;77.39;99069.44;4993875;28;20265;-62
2022/01/21 05:46:55;;;;;;;7.03;5.77;;;;;;;-0.03;76.76;99074.91;4994370;28;20278;-69
2022/01/21 05:49:25;;;;;;;9.43;6.10;;;;;;;-0.20;77.52;99059.91;4994115;28;20258;-66
2022/01/21 05:51:53;;;;;;;11.13;7.03;;;;;;;-0.08;78.45;99083.16;4994146;28;20265;-65
2022/01/21 05:54:24;;;;;;;10.40;7.37;;;;;;;-0.28;77.44;99050.13;4993835;28;20269;-65
2022/01/21 05:56:51;;;;;;;13.07;6.03;;;;;;;-0.11;77.87;99095.69;4994037;28;20384;-65
2022/01/21 05:59:16;;;;;;;8.60;5.50;;;;;;;-0.19;77.92;99082.47;4993331;28;20265;-65
2022/01/21 06:01:42;;;;;;;12.13;6.73;;;;;;;-0.23;77.33;99083.72;4992393;28;20257;-66
2022/01/21 06:04:07;;;;;;;11.50;6.90;;;;;;;-0.24;76.82;99101.19;4994021;28;20034;-66
2022/01/21 06:06:34;;;;;;;9.33;5.73;;;;;;;-0.38;77.24;99091.94;4993327;28;20042;-67
2022/01/21 06:09:02;;;;;;;10.13;5.40;;;;;;;-0.43;78.51;99085.44;4993619;28;20282;-65
2022/01/21 06:11:28;;;;;;;12.27;6.87;;;;;;;-0.34;77.26;99101.16;4993799;28;20328;-63
2022/01/21 06:13:53;;;;;;;7.97;6.07;;;;;;;-0.45;77.74;99090.81;4993664;28;20266;-65
2022/01/21 06:16:19;;;;;;;7.10;5.43;;;;;;;-0.45;77.46;99095.22;4993704;28;20409;-62
2022/01/21 06:18:45;;;;;;;9.20;5.63;;;;;;;-0.51;77.35;99095.75;4993449;28;20053;-65
2022/01/21 06:21:11;;;;;;;8.60;5.80;;;;;;;-0.51;77.66;99101.81;4993686;28;20125;-65
2022/01/21 06:23:37;;;;;;;10.17;6.13;;;;;;;-0.58;78.03;99094.59;4993524;28;20745;-65
2022/01/21 06:26:02;;;;;;;12.70;7.03;;;;;;;-0.57;77.68;99112.81;4994044;28;20046;-72
2022/01/21 06:28:28;;;;;;;18.40;7.63;;;;;;;-0.63;78.55;99108.06;4994163;28;20406;-74
2022/01/21 06:30:54;;;;;;;9.73;6.40;;;;;;;-0.76;78.47;99086.56;4993622;28;20529;-71
2022/01/21 06:33:23;;;;;;;6.80;4.90;;;;;;;-0.78;78.01;99102.41;4979047;28;20297;-69
2022/01/21 06:35:49;;;;;;;9.70;5.00;;;;;;;-0.78;78.72;99107.63;4988871;28;20089;-65
2022/01/21 06:38:15;;;;;;;11.00;5.60;;;;;;;-0.76;79.14;99118.78;4997108;28;20537;-70
2022/01/21 06:40:40;;;;;;;14.70;7.67;;;;;;;-0.74;78.90;99121.25;4982510;28;20273;-68
2022/01/21 06:43:06;;;;;;;11.13;6.47;;;;;;;-0.95;78.48;99095.16;4997228;28;20039;-68
2022/01/21 06:45:32;;;;;;;9.93;6.77;;;;;;;-0.81;78.74;99109.69;4982875;28;20495;-71
2022/01/21 06:47:58;;;;;;;11.63;6.73;;;;;;;-0.83;78.22;99114.22;4984909;28;20410;-69
2022/01/21 06:50:25;;;;;;;8.73;5.73;;;;;;;-0.81;78.70;99131.41;4985465;28;20041;-73
2022/01/21 06:52:51;;;;;;;12.40;6.80;;;;;;;-1.03;78.34;99110.66;4983824;28;20361;-70
2022/01/21 06:55:16;;;;;;;19.23;8.97;;;;;;;-0.93;78.55;99135.88;4982468;28;20357;-69
2022/01/21 06:57:42;;;;;;;25.37;12.60;;;;;;;-0.94;78.70;99130.78;4983910;28;20084;-70
2022/01/21 07:00:10;;;;;;;10.30;6.33;;;;;;;-0.84;78.24;99146.53;4998692;28;20041;-73
2022/01/21 07:02:36;;;;;;;13.07;7.93;;;;;;;-0.83;78.49;99138.56;4991052;28;20125;-72
2022/01/21 07:05:04;;;;;;;15.40;7.97;;;;;;;-0.95;78.18;99098.59;4991426;28;20458;-66
2022/01/21 07:07:56;;;;;;;10.93;7.67;;;;;;;-0.76;78.49;99123.19;4987063;28;20117;-69
2022/01/21 07:10:22;;;;;;;11.03;7.10;;;;;;;-0.65;77.89;99136.16;4978190;28;20750;-67
2022/01/21 07:12:48;;;;;;;11.47;7.53;;;;;;;-0.69;78.25;99135.59;4973215;28;20349;-68
2022/01/21 07:15:19;;;;;;;11.57;7.17;;;;;;;-0.69;78.12;99145.22;4973224;28;20711;-68
2022/01/21 07:17:52;;;;;;;15.27;7.60;;;;;;;-0.79;77.76;99146.97;4972659;28;20039;-76
2022/01/21 07:20:18;;;;;;;14.20;8.73;;;;;;;-0.85;78.92;99152.72;4973744;28;20328;-72
2022/01/21 07:22:44;;;;;;;15.60;9.13;;;;;;;-0.79;80.04;99160.03;4973954;28;20262;-75
2022/01/21 07:25:10;;;;;;;23.57;11.37;;;;;;;-0.80;79.69;99164.44;4972330;28;20272;-76
2022/01/21 07:27:36;;;;;;;20.97;10.93;;;;;;;-0.69;79.55;99173.97;4973866;28;20039;-73
2022/01/21 07:30:04;;;;;;;17.37;12.03;;;;;;;-0.76;79.88;99181.50;4973430;28;20280;-78
2022/01/21 07:32:29;;;;;;;17.65;11.80;;;;;;;-0.85;79.51;99160.56;4973469;28;20167;-68
2022/01/21 07:34:55;;;;;;;17.53;12.37;;;;;;;-0.80;79.68;99171.44;4972187;28;20059;-74
2022/01/21 07:37:21;;;;;;;23.83;14.10;;;;;;;-0.91;79.60;99156.66;4973752;28;20517;-81
2022/01/21 07:39:47;;;;;;;20.50;13.50;;;;;;;-0.82;79.36;99175.97;4972494;28;20129;-76
2022/01/21 07:42:12;;;;;;;18.53;12.70;;;;;;;-0.78;78.82;99183.44;4972424;28;20070;-65
2022/01/21 07:44:39;;;;;;;15.67;11.17;;;;;;;-0.80;78.44;99195.81;4971916;28;20146;-69
2022/01/21 07:47:05;;;;;;;19.10;12.90;;;;;;;-0.91;79.28;99187.19;4971467;28;20058;-73
2022/01/21 07:49:31;;;;;;;17.20;11.43;;;;;;;-0.89;78.62;99198.34;4972807;28;20635;-69
2022/01/21 07:51:56;;;;;;;16.83;10.37;;;;;;;-0.92;78.89;99196.81;4971382;28;20298;-68
2022/01/21 07:54:22;;;;;;;14.73;8.70;;;;;;;-1.04;77.78;99161.25;4972034;28;20034;-69
2022/01/21 07:56:47;;;;;;;19.47;10.20;;;;;;;-0.77;76.75;99192.09;4971520;28;20129;-61
2022/01/21 07:59:15;;;;;;;12.10;8.90;;;;;;;-0.70;76.67;99201.06;4973138;28;20039;-66
2022/01/21 08:01:41;;;;;;;13.93;8.30;;;;;;;-0.65;76.55;99206.75;4972630;28;20045;-71
2022/01/21 08:04:07;;;;;;;11.73;8.20;;;;;;;-0.69;76.85;99198.31;4972749;28;20042;-68
2022/01/21 08:06:33;;;;;;;12.87;8.67;;;;;;;-0.57;76.29;99206.13;4973285;28;20097;-69
2022/01/21 08:08:59;;;;;;;16.60;10.13;;;;;;;-0.54;76.01;99211.06;4973395;28;20129;-70
2022/01/21 08:11:25;;;;;;;15.23;9.73;;;;;;;-0.51;76.87;99221.28;4971800;28;20050;-68
2022/01/21 08:13:52;;;;;;;15.03;10.47;;;;;;;-0.49;76.16;99220.19;4972462;28;20273;-66
2022/01/21 08:16:18;;;;;;;13.97;9.73;;;;;;;-0.51;76.54;99226.50;4971355;28;20266;-68
2022/01/21 08:18:43;;;;;;;16.90;10.00;;;;;;;-0.61;75.86;99213.34;4973038;28;20329;-69
2022/01/21 08:21:09;;;;;;;19.50;10.60;;;;;;;-0.64;76.54;99226.69;4971783;28;20801;-72
2022/01/21 08:23:34;;;;;;;13.27;9.70;;;;;;;-0.60;77.01;99235.09;4973771;28;20076;-69
2022/01/21 08:26:01;;;;;;;16.13;10.83;;;;;;;-0.57;76.68;99232.25;4972590;28;20046;-72
2022/01/21 08:28:27;;;;;;;18.87;11.57;;;;;;;-0.59;76.94;99224.50;4973659;28;20524;-71
2022/01/21 08:30:52;;;;;;;18.27;11.97;;;;;;;-0.52;76.86;99236.13;4974400;28;20350;-68
2022/01/21 08:33:18;;;;;;;17.73;10.10;;;;;;;-0.44;76.58;99245.94;4976429;28;20054;-71
2022/01/21 08:35:43;;;;;;;19.83;10.53;;;;;;;-0.63;76.95;99221.34;4976652;28;20031;-70
2022/01/21 08:38:09;;;;;;;17.23;9.73;;;;;;;-0.53;76.61;99239.72;4975985;28;20035;-73
2022/01/21 08:40:35;;;;;;;16.27;11.00;;;;;;;-0.56;76.73;99245.19;4976557;28;20042;-72
2022/01/21 08:43:00;;;;;;;16.27;11.63;;;;;;;-0.55;76.71;99244.25;4975015;28;20560;-69
2022/01/21 08:45:29;;;;;;;15.83;10.07;;;;;;;-0.55;76.23;99241.63;4975864;28;20046;-68
2022/01/21 08:47:55;;;;;;;17.05;10.77;;;;;;;-0.54;76.03;99256.34;4976144;28;20201;-70
2022/01/21 08:50:22;;;;;;;18.23;10.57;;;;;;;-0.63;76.04;99249.25;4976052;28;20134;-72
2022/01/21 08:52:49;;;;;;;21.53;11.70;;;;;;;-0.74;76.26;99223.19;4975881;28;20284;-70
2022/01/21 08:55:20;;;;;;;20.07;11.90;;;;;;;-0.61;76.49;99239.50;4976026;28;20388;-68
2022/01/21 08:57:47;;;;;;;17.30;11.60;;;;;;;-0.48;75.37;99265.47;4975788;28;20302;-70
2022/01/21 09:00:18;;;;;;;16.03;10.40;;;;;;;-0.48;76.30;99261.06;4975748;28;20270;-68
2022/01/21 09:02:45;;;;;;;16.70;10.40;;;;;;;-0.48;76.08;99257.63;4976236;28;20761;-70
2022/01/21 09:05:11;;;;;;;38.73;12.60;;;;;;;-0.40;75.69;99265.66;4976260;28;20274;-69
2022/01/21 09:07:38;;;;;;;27.17;15.80;;;;;;;-0.47;75.08;99260.09;4975777;28;20736;-70
2022/01/21 09:10:07;;;;;;;16.67;11.90;;;;;;;-0.34;75.27;99279.03;4975249;28;20046;-65
2022/01/21 09:12:33;;;;;;;20.27;11.50;;;;;;;-0.33;75.13;99275.44;4975339;28;20373;-68
2022/01/21 09:14:59;;;;;;;18.63;10.10;;;;;;;-0.27;74.62;99270.69;4975316;28;20321;-66
2022/01/21 09:17:26;;;;;;;21.03;12.50;;;;;;;-0.38;75.03;99253.25;4975419;28;20302;-67
2022/01/21 09:19:51;;;;;;;16.03;10.63;;;;;;;-0.27;74.81;99273.31;4977846;28;20050;-68
2022/01/21 09:22:17;;;;;;;14.33;10.00;;;;;;;-0.44;74.86;99251.16;4983871;28;20681;-69
2022/01/21 09:24:42;;;;;;;18.60;10.03;;;;;;;-0.25;75.21;99284.47;4994086;28;20057;-71
2022/01/21 09:27:08;;;;;;;18.67;10.73;;;;;;;-0.35;74.73;99287.84;4993669;28;20506;-68
2022/01/21 09:29:34;;;;;;;14.53;9.83;;;;;;;-0.39;74.33;99288.22;4994982;28;20561;-66
2022/01/21 09:32:02;;;;;;;19.23;11.10;;;;;;;-0.44;74.90;99283.38;4993973;28;20345;-71
2022/01/21 09:34:29;;;;;;;25.27;11.83;;;;;;;-0.47;74.81;99281.03;4994496;28;20280;-69
2022/01/21 09:36:58;;;;;;;14.77;10.80;;;;;;;-0.37;74.77;99302.84;4995132;28;20341;-72
2022/01/21 09:39:25;;;;;;;23.47;11.43;;;;;;;-0.36;75.67;99314.13;4994469;28;20775;-75
2022/01/21 09:41:55;;;;;;;19.97;11.80;;;;;;;-0.46;75.00;99303.59;4993180;28;20278;-67
2022/01/21 09:44:21;;;;;;;17.27;11.53;;;;;;;-0.51;75.27;99290.09;4994065;28;20824;-69
2022/01/21 09:46:52;;;;;;;19.40;12.70;;;;;;;-0.41;75.37;99311.91;4994216;28;20277;-71
2022/01/21 09:52:21;;;;;;;23.57;13.03;;;;;;;-0.19;75.84;99318.78;4993436;28;20673;-70
2022/01/21 09:54:48;;;;;;;19.70;13.60;;;;;;;-0.13;75.06;99322.66;4951229;28;20361;-69
2022/01/21 09:57:20;;;;;;;16.60;11.93;;;;;;;-0.13;75.04;99325.28;4994067;28;20300;-72
2022/01/21 09:59:47;;;;;;;20.03;13.13;;;;;;;-0.20;74.86;99313.69;5009348;28;20266;-69
2022/01/21 10:02:16;;;;;;;16.20;11.23;;;;;;;-0.19;74.51;99318.78;4994016;28;20702;-69
2022/01/21 10:04:43;;;;;;;19.40;11.87;;;;;;;0.00;74.82;99328.53;4994103;28;20714;-72
2022/01/21 10:07:22;;;;;;;18.57;11.93;;;;;;;-0.02;73.86;99335.66;4994078;28;20294;-71
2022/01/21 10:09:54;;;;;;;20.77;11.57;;;;;;;-0.09;74.51;99339.75;4994201;28;20328;-69
2022/01/21 10:12:20;;;;;;;14.17;9.67;;;;;;;-0.15;73.97;99340.28;4994138;28;20666;-71
2022/01/21 10:14:46;;;;;;;15.37;8.93;;;;;;;-0.26;73.98;99356.06;4993753;28;20756;-70
2022/01/21 10:17:14;;;;;;;14.57;9.77;;;;;;;-0.36;74.96;99328.03;4993572;28;20336;-71
2022/01/21 10:19:41;;;;;;;14.98;9.70;;;;;;;-0.15;74.44;99351.56;4994451;28;20040;-73
2022/01/21 10:22:10;;;;;;;13.67;9.40;;;;;;;-0.09;73.78;99347.59;4994015;28;20038;-71
2022/01/21 10:25:05;;;;;;;13.80;8.80;;;;;;;0.07;73.92;99345.38;4992471;28;20282;-70
2022/01/21 10:27:35;;;;;;;11.63;8.33;;;;;;;0.30;72.50;99339.00;5008878;28;20270;-72
2022/01/21 10:30:02;;;;;;;19.95;9.52;;;;;;;0.24;72.08;99346.53;4993788;28;20649;-72
2022/01/21 10:32:41;;;;;;;11.68;9.07;;;;;;;0.16;73.62;99355.03;4993934;28;20049;-72
2022/01/21 10:35:32;;;;;;;17.77;10.50;;;;;;;0.04;73.09;99363.94;4993898;28;20034;-69
2022/01/21 10:38:19;;;;;;;14.10;9.13;;;;;;;-0.29;73.09;99344.03;4993704;28;20325;-72
2022/01/21 10:40:45;;;;;;;18.03;10.77;;;;;;;-0.32;73.95;99358.19;4993733;28;20634;-76
2022/01/21 10:43:16;;;;;;;15.80;11.80;;;;;;;-0.31;75.18;99354.63;4993167;28;20285;-74
2022/01/21 10:45:57;;;;;;;18.73;13.53;;;;;;;-0.17;75.07;99357.91;4993355;28;20281;-76
2022/01/21 10:48:24;;;;;;;22.00;15.17;;;;;;;-0.13;74.71;99361.91;4993481;28;20277;-70
2022/01/21 10:51:15;;;;;;;22.63;13.53;;;;;;;-0.23;75.39;99374.13;4994020;28;20273;-71
2022/01/21 10:53:44;;;;;;;19.17;13.90;;;;;;;-0.38;75.41;99363.94;4992973;28;20283;-72
2022/01/21 10:56:16;;;;;;;19.10;13.13;;;;;;;-0.29;75.88;99364.97;4993284;28;20284;-72
2022/01/21 10:58:47;;;;;;;20.33;13.87;;;;;;;-0.15;75.76;99374.28;4992948;28;20269;-74
2022/01/21 11:01:21;;;;;;;23.67;13.90;;;;;;;-0.23;75.24;99374.13;4992992;28;20300;-70
2022/01/21 11:04:11;;;;;;;18.13;12.53;;;;;;;-0.22;74.79;99374.00;4982865;28;20270;-70
2022/01/21 11:06:56;;;;;;;20.00;13.47;;;;;;;-0.14;74.91;99381.19;4973640;28;20678;-75
2022/01/21 11:09:25;;;;;;;17.40;11.97;;;;;;;-0.17;75.06;99365.75;4973906;28;20873;-73
2022/01/21 11:12:15;;;;;;;19.60;12.88;;;;;;;0.09;74.83;99381.88;4973975;28;20285;-72
2022/01/21 11:14:57;;;;;;;17.47;12.40;;;;;;;0.08;73.78;99386.28;4972435;28;20426;-71
2022/01/21 11:17:24;;;;;;;17.23;11.57;;;;;;;-0.10;73.96;99385.19;4972877;28;20448;-71
2022/01/21 11:20:16;;;;;;;19.83;11.47;;;;;;;-0.34;74.87;99390.69;4972970;28;20285;-74
2022/01/21 11:22:59;;;;;;;19.03;11.33;;;;;;;-0.55;75.95;99390.69;4972977;28;20408;-70
2022/01/21 11:25:44;;;;;;;18.80;12.43;;;;;;;-0.55;76.75;99406.38;4973149;28;20765;-72
2022/01/21 11:28:20;;;;;;;16.80;10.40;;;;;;;-0.63;77.19;99385.22;4972013;28;20266;-73
2022/01/21 11:30:47;;;;;;;18.93;12.70;;;;;;;-0.63;76.84;99391.28;4973983;28;20278;-71
2022/01/21 11:33:12;;;;;;;18.57;11.90;;;;;;;-0.54;77.21;99400.19;4973418;28;20285;-72
2022/01/21 11:35:38;;;;;;;17.67;10.00;;;;;;;-0.48;76.97;99406.69;4976423;28;20274;-72
2022/01/21 11:38:12;;;;;;;12.90;9.53;;;;;;;-0.32;76.74;99405.28;4974785;28;20621;-68
2022/01/21 11:40:40;;;;;;;15.30;9.77;;;;;;;-0.45;76.26;99381.13;4977195;28;20402;-67
2022/01/21 11:43:09;;;;;;;14.13;9.57;;;;;;;-0.23;75.82;99413.34;4977857;28;20301;-67
2022/01/21 11:50:46;;;;;;;18.63;9.87;;;;;;;-0.58;76.82;99385.69;4973178;28;20271;-71
2022/01/21 11:53:12;;;;;;;22.37;13.37;;;;;;;-0.42;77.17;99425.31;4973515;28;20434;-71
2022/01/21 11:55:47;;;;;;;15.67;10.10;;;;;;;-0.32;76.91;99421.00;4973209;28;20642;-70
2022/01/21 11:58:21;;;;;;;14.50;10.93;;;;;;;-0.46;76.26;99413.47;4972783;28;20325;-73
2022/01/21 12:00:48;;;;;;;14.03;8.87;;;;;;;-0.44;76.11;99432.47;4973154;28;20358;-68
2022/01/21 12:03:22;;;;;;;13.30;8.47;;;;;;;-0.44;74.99;99442.09;4972827;28;20274;-70
2022/01/21 12:05:49;;;;;;;14.10;9.50;;;;;;;-0.55;75.69;99440.38;4975052;28;20281;-73
2022/01/21 12:08:35;;;;;;;19.70;9.93;;;;;;;-0.73;76.83;99400.00;4976507;28;20294;-73
2022/01/21 12:11:37;;;;;;;13.67;9.47;;;;;;;-0.31;76.25;99459.28;4977611;28;20309;-72
2022/01/21 12:14:29;;;;;;;17.97;10.13;;;;;;;-0.12;76.16;99457.78;4976315;28;20279;-71
2022/01/21 12:17:02;;;;;;;14.57;10.20;;;;;;;-0.19;75.08;99454.00;4970046;28;20348;-75
2022/01/21 12:19:35;;;;;;;17.10;11.17;;;;;;;-0.35;75.30;99450.03;4975869;28;20270;-77
2022/01/21 12:22:18;;;;;;;15.60;9.77;;;;;;;-0.37;76.12;99462.41;4975789;28;20262;-71
2022/01/21 12:24:51;;;;;;;15.13;10.57;;;;;;;-0.32;76.56;99489.00;4974722;28;20289;-69
2022/01/21 12:27:19;;;;;;;12.57;8.70;;;;;;;-0.50;76.63;99489.69;4976488;28;20324;-70
2022/01/21 12:29:45;;;;;;;15.00;9.17;;;;;;;-0.65;76.78;99491.72;4976995;28;20255;-80
2022/01/21 12:32:36;;;;;;;11.00;7.90;;;;;;;-0.68;77.18;99499.81;4978023;28;20305;-75
2022/01/21 12:35:11;;;;;;;12.55;7.68;;;;;;;-0.94;78.46;99460.06;4985086;28;20639;-74